Time;durP1;ratioP1;P1;durP2;ratioP2;P2;SDS_P1;SDS_P2;PMS_P1;PMS_P2;Temp;Humidity;BMP_temperature;BMP_pressure;BME280_temperature;BME280_humidity;BME280_pressure;Samples;Min_cycle;Max_cycle;Signal;HPM_P1;HPM_P2
2022/11/10 00:00:17;;;;;;;9.55;1.70;;;10.20;99.90;;;;;;4948734;28;20610;-85
2022/11/10 00:02:44;;;;;;;8.88;1.35;;;10.40;99.90;;;;;;4946766;28;20039;-86
2022/11/10 00:05:10;;;;;;;5.53;1.40;;;10.30;99.90;;;;;;4966625;28;20533;-85
2022/11/10 00:07:36;;;;;;;5.95;1.50;;;10.40;99.90;;;;;;4924483;28;20491;-85
2022/11/10 00:10:01;;;;;;;4.68;1.58;;;10.40;99.90;;;;;;4933853;28;20031;-85
2022/11/10 00:12:27;;;;;;;6.88;1.55;;;10.40;99.90;;;;;;4950558;28;20055;-85
2022/11/10 00:17:36;;;;;;;4.82;1.42;;;10.40;99.90;;;;;;4964279;28;20093;-85
2022/11/10 00:20:03;;;;;;;15.30;1.77;;;10.40;99.90;;;;;;4930954;28;20106;-85
2022/11/10 00:22:28;;;;;;;8.13;1.55;;;10.30;99.90;;;;;;4982527;28;20693;-85
2022/11/10 00:24:54;;;;;;;5.32;1.45;;;10.40;99.90;;;;;;4949252;28;20079;-86
2022/11/10 00:27:19;;;;;;;6.55;2.05;;;10.40;99.90;;;;;;4924324;28;20059;-85
2022/11/10 00:29:45;;;;;;;8.77;1.50;;;10.40;99.90;;;;;;4937684;28;20109;-85
2022/11/10 00:32:10;;;;;;;10.23;2.17;;;10.30;99.90;;;;;;4937022;28;20039;-85
2022/11/10 00:34:36;;;;;;;8.07;1.73;;;10.40;99.90;;;;;;4947772;28;20020;-85
2022/11/10 00:37:02;;;;;;;9.32;2.33;;;10.50;99.90;;;;;;4956746;28;20113;-85
2022/11/10 00:39:27;;;;;;;13.13;1.67;;;10.30;99.90;;;;;;4981096;28;20030;-85
2022/11/10 00:41:53;;;;;;;10.93;1.80;;;10.30;99.90;;;;;;4946736;28;20046;-84
2022/11/10 00:44:19;;;;;;;10.27;1.58;;;10.30;99.90;;;;;;4953240;28;20486;-85
2022/11/10 00:46:44;;;;;;;6.30;1.52;;;10.20;99.90;;;;;;4931487;28;20030;-85
2022/11/10 00:49:10;;;;;;;6.38;1.63;;;10.20;99.90;;;;;;4952835;28;20035;-85
2022/11/10 00:51:36;;;;;;;4.97;1.25;;;10.20;99.90;;;;;;4966304;28;20066;-84
2022/11/10 00:54:01;;;;;;;12.07;1.85;;;10.20;99.90;;;;;;4955663;28;20106;-85
2022/11/10 00:56:27;;;;;;;7.20;1.50;;;10.20;99.90;;;;;;4932110;28;20109;-85
2022/11/10 00:58:52;;;;;;;10.73;1.50;;;10.20;99.90;;;;;;4991227;28;20050;-85
2022/11/10 01:01:19;;;;;;;6.20;0.85;;;10.30;99.90;;;;;;4924204;28;20126;-85
2022/11/10 01:03:44;;;;;;;4.47;1.30;;;10.20;99.90;;;;;;4927465;28;20086;-85
2022/11/10 01:06:12;;;;;;;4.25;1.08;;;10.20;99.90;;;;;;4966893;28;20039;-85
2022/11/10 01:08:37;;;;;;;5.35;1.52;;;10.20;99.90;;;;;;4966564;28;20046;-85
2022/11/10 01:11:04;;;;;;;5.13;1.20;;;10.20;99.90;;;;;;4957409;28;20027;-85
2022/11/10 01:13:30;;;;;;;6.35;2.35;;;10.20;99.90;;;;;;4968531;28;20031;-86
2022/11/10 01:15:56;;;;;;;14.45;2.28;;;10.20;99.90;;;;;;4957482;28;20921;-85
2022/11/10 01:18:21;;;;;;;4.32;1.20;;;10.20;99.90;;;;;;4951456;28;20114;-84
2022/11/10 01:20:50;;;;;;;9.10;1.80;;;10.20;99.90;;;;;;4952085;28;20118;-84
2022/11/10 01:23:16;;;;;;;2.10;0.73;;;10.10;99.90;;;;;;4967251;28;20035;-84
2022/11/10 01:25:42;;;;;;;11.13;1.17;;;10.10;99.90;;;;;;4952169;28;20578;-84
2022/11/10 01:28:07;;;;;;;8.30;1.08;;;10.20;99.90;;;;;;4950827;28;20166;-84
2022/11/10 01:30:33;;;;;;;10.85;1.90;;;10.20;99.90;;;;;;4966522;28;20031;-84
2022/11/10 01:32:58;;;;;;;3.42;1.20;;;10.10;99.90;;;;;;4961085;28;20449;-84
2022/11/10 01:35:25;;;;;;;1.70;0.73;;;10.00;99.90;;;;;;4951207;28;20034;-83
2022/11/10 01:37:51;;;;;;;13.00;2.42;;;10.10;99.90;;;;;;4964884;28;20034;-84
2022/11/10 01:40:17;;;;;;;6.28;1.23;;;10.10;99.90;;;;;;4931177;28;20031;-84
2022/11/10 01:43:00;;;;;;;3.83;0.95;;;10.20;99.90;;;;;;4932591;28;20035;-84
2022/11/10 01:45:34;;;;;;;8.30;1.83;;;10.10;99.90;;;;;;4916109;28;20093;-83
2022/11/10 01:48:02;;;;;;;6.80;1.67;;;10.20;99.90;;;;;;4951568;28;20664;-84
2022/11/10 01:50:31;;;;;;;8.48;1.50;;;10.10;99.90;;;;;;4965967;28;20440;-84
2022/11/10 01:52:58;;;;;;;4.32;1.23;;;10.10;99.90;;;;;;4942902;28;20066;-84
2022/11/10 01:55:24;;;;;;;13.20;1.33;;;10.10;99.90;;;;;;4950658;28;20038;-84
2022/11/10 01:57:49;;;;;;;9.70;1.73;;;10.10;99.90;;;;;;4970077;28;20030;-84
2022/11/10 02:00:16;;;;;;;4.00;1.23;;;10.00;99.90;;;;;;4951028;28;20038;-84
2022/11/10 02:02:49;;;;;;;11.10;1.63;;;10.10;99.90;;;;;;4953794;28;20035;-84
2022/11/10 02:05:15;;;;;;;7.88;1.98;;;10.00;99.90;;;;;;4932305;28;20401;-83
2022/11/10 02:07:40;;;;;;;12.15;2.05;;;10.00;99.90;;;;;;4933276;28;20055;-83
2022/11/10 02:10:13;;;;;;;9.05;2.20;;;10.00;99.90;;;;;;4937740;28;20034;-84
2022/11/10 02:12:38;;;;;;;10.93;1.13;;;10.00;99.90;;;;;;4933651;28;20035;-84
2022/11/10 02:15:05;;;;;;;4.00;0.60;;;10.10;99.90;;;;;;4953539;28;20362;-84
2022/11/10 02:17:30;;;;;;;5.53;1.20;;;10.00;99.90;;;;;;4951319;28;20039;-83
2022/11/10 02:20:03;;;;;;;5.35;1.00;;;10.00;99.90;;;;;;4934822;28;20034;-84
2022/11/10 02:22:31;;;;;;;11.93;1.77;;;10.10;99.90;;;;;;4951102;28;20491;-84
2022/11/10 02:24:57;;;;;;;3.78;1.35;;;10.10;99.90;;;;;;4961511;28;20231;-84
2022/11/10 02:27:22;;;;;;;6.47;1.42;;;10.00;99.90;;;;;;4967116;28;20545;-83
2022/11/10 02:29:48;;;;;;;5.78;1.13;;;10.00;99.90;;;;;;4952456;28;20035;-84
2022/11/10 02:32:14;;;;;;;7.35;1.20;;;10.10;99.90;;;;;;4952073;28;20051;-84
2022/11/10 02:34:39;;;;;;;5.00;1.10;;;10.10;99.90;;;;;;4953327;28;20058;-83
2022/11/10 02:37:05;;;;;;;10.52;1.83;;;10.00;99.90;;;;;;4951255;28;20089;-83
2022/11/10 02:39:30;;;;;;;5.53;1.23;;;10.00;99.90;;;;;;4952526;28;20038;-83
2022/11/10 02:41:56;;;;;;;9.32;1.38;;;10.00;99.90;;;;;;4935913;28;20501;-82
2022/11/10 02:44:21;;;;;;;9.43;1.77;;;10.10;99.90;;;;;;4948694;28;20070;-84
2022/11/10 02:46:47;;;;;;;8.02;1.10;;;10.10;99.90;;;;;;4953331;28;20475;-83
2022/11/10 02:49:12;;;;;;;3.10;1.30;;;10.10;99.90;;;;;;4949664;28;20889;-83
2022/11/10 02:51:38;;;;;;;10.18;2.20;;;10.10;99.90;;;;;;4979920;28;20558;-84
2022/11/10 02:54:05;;;;;;;17.38;1.63;;;10.10;99.90;;;;;;4933086;28;20038;-83
2022/11/10 02:56:31;;;;;;;10.88;2.30;;;10.00;99.90;;;;;;4962105;28;20037;-83
2022/11/10 02:58:56;;;;;;;4.80;1.08;;;10.00;99.90;;;;;;4968502;28;20737;-84
2022/11/10 03:01:22;;;;;;;8.30;1.55;;;10.00;99.90;;;;;;4951348;28;20085;-83
2022/11/10 03:03:47;;;;;;;4.30;1.10;;;10.00;99.90;;;;;;4950451;28;20046;-83
2022/11/10 03:06:13;;;;;;;7.15;1.17;;;10.00;99.90;;;;;;4934356;28;20127;-83
2022/11/10 03:08:39;;;;;;;8.20;1.02;;;10.00;99.90;;;;;;4932306;28;20051;-83
2022/11/10 03:11:05;;;;;;;10.25;1.42;;;10.00;99.90;;;;;;4972066;28;20073;-83
2022/11/10 03:13:31;;;;;;;4.85;1.80;;;9.90;99.90;;;;;;4942441;28;20069;-83
2022/11/10 03:15:56;;;;;;;7.20;1.30;;;9.90;99.90;;;;;;4952988;28;20034;-83
2022/11/10 03:18:22;;;;;;;6.55;0.82;;;9.90;99.90;;;;;;4966332;28;20445;-84
2022/11/10 03:20:49;;;;;;;10.02;1.70;;;9.90;99.90;;;;;;4946700;28;20035;-84
2022/11/10 03:23:16;;;;;;;3.75;1.73;;;10.00;99.90;;;;;;4950973;28;20131;-83
2022/11/10 03:25:41;;;;;;;6.55;1.48;;;10.00;99.90;;;;;;4964023;28;20565;-82
2022/11/10 03:28:09;;;;;;;6.00;1.27;;;10.00;99.90;;;;;;4933996;28;20067;-83
2022/11/10 03:30:35;;;;;;;10.45;1.30;;;10.00;99.90;;;;;;4951593;28;20032;-83
2022/11/10 03:33:00;;;;;;;8.77;1.40;;;10.00;99.90;;;;;;4951717;28;20031;-83
2022/11/10 03:35:26;;;;;;;3.53;0.95;;;10.00;99.90;;;;;;4964639;28;20387;-84
2022/11/10 03:37:52;;;;;;;1.35;0.50;;;10.00;99.90;;;;;;4968264;28;20505;-83
2022/11/10 03:40:18;;;;;;;11.25;1.60;;;10.10;99.90;;;;;;4949072;28;20434;-83
2022/11/10 03:42:44;;;;;;;6.82;1.40;;;10.00;99.90;;;;;;4949862;28;20074;-84
2022/11/10 03:45:10;;;;;;;9.07;1.27;;;10.00;99.90;;;;;;4952603;28;20027;-83
2022/11/10 03:47:36;;;;;;;5.85;1.63;;;10.00;99.90;;;;;;4951373;28;20034;-83
2022/11/10 03:50:01;;;;;;;5.45;1.25;;;9.90;99.90;;;;;;4934428;28;20049;-83
2022/11/10 03:52:27;;;;;;;4.47;1.38;;;9.90;99.90;;;;;;4932121;28;20394;-83
2022/11/10 03:55:00;;;;;;;8.93;1.73;;;10.00;99.90;;;;;;4938606;28;20062;-83
2022/11/10 03:57:26;;;;;;;7.55;1.58;;;9.90;99.90;;;;;;4971229;28;20110;-83
2022/11/10 03:59:51;;;;;;;8.95;1.75;;;9.90;99.90;;;;;;4960151;28;20118;-83
2022/11/10 04:02:17;;;;;;;11.45;1.33;;;9.90;99.90;;;;;;4949448;28;20031;-83
2022/11/10 04:10:11;;;;;;;5.88;1.05;;;9.90;99.90;;;;;;4953591;28;20033;-83
2022/11/10 04:18:19;;;;;;;13.30;2.03;;;9.90;99.90;;;;;;4965971;28;20639;-84
2022/11/10 04:20:45;;;;;;;6.75;0.65;;;9.90;99.90;;;;;;4952749;28;20027;-83
2022/11/10 04:23:26;;;;;;;16.13;1.70;;;9.80;99.90;;;;;;4948041;28;20348;-83
2022/11/10 04:28:37;;;;;;;7.88;1.48;;;9.70;99.90;;;;;;4950338;28;20172;-83
2022/11/10 04:31:03;;;;;;;12.63;1.42;;;9.80;99.90;;;;;;4935150;28;20039;-83
2022/11/10 04:33:28;;;;;;;6.05;0.85;;;9.80;99.90;;;;;;4983494;28;20042;-83
2022/11/10 04:35:54;;;;;;;12.05;1.88;;;9.80;99.90;;;;;;4936702;28;20059;-84
2022/11/10 04:38:19;;;;;;;14.02;1.55;;;9.70;99.90;;;;;;4951995;28;20440;-83
2022/11/10 04:40:45;;;;;;;10.82;1.73;;;9.70;99.90;;;;;;4940869;28;20059;-83
2022/11/10 04:43:10;;;;;;;5.30;1.27;;;9.80;99.90;;;;;;4939076;28;20035;-82
2022/11/10 04:45:36;;;;;;;8.80;1.45;;;9.70;99.90;;;;;;4928928;28;20046;-83
2022/11/10 04:48:01;;;;;;;8.20;2.28;;;9.70;99.90;;;;;;4948399;28;20050;-83
2022/11/10 04:50:27;;;;;;;9.90;1.50;;;9.70;99.90;;;;;;4953622;28;20058;-83
2022/11/10 04:52:52;;;;;;;14.38;1.92;;;9.70;99.90;;;;;;4966890;28;20025;-83
2022/11/10 04:55:18;;;;;;;8.25;1.20;;;9.70;99.90;;;;;;4960956;28;20037;-83
2022/11/10 04:57:43;;;;;;;12.07;1.63;;;9.80;99.90;;;;;;4955410;28;20035;-82
2022/11/10 05:00:10;;;;;;;15.40;1.67;;;9.70;99.90;;;;;;4934354;28;20059;-83
2022/11/10 05:02:35;;;;;;;5.00;1.33;;;9.70;99.90;;;;;;4962283;28;20039;-83
2022/11/10 05:05:02;;;;;;;14.38;1.65;;;9.70;99.90;;;;;;4939180;28;20054;-82
2022/11/10 05:07:28;;;;;;;5.95;1.23;;;9.70;99.90;;;;;;4963334;28;20379;-82
2022/11/10 05:09:53;;;;;;;6.85;1.50;;;9.70;99.90;;;;;;4942093;28;20042;-83
2022/11/10 05:12:19;;;;;;;8.77;1.65;;;9.70;99.90;;;;;;4946228;28;20912;-82
2022/11/10 05:14:44;;;;;;;8.00;1.17;;;9.60;99.90;;;;;;4981325;28;20031;-82
2022/11/10 05:17:10;;;;;;;12.57;1.38;;;9.70;99.90;;;;;;4921060;28;20109;-83
2022/11/10 05:19:36;;;;;;;6.45;1.38;;;9.60;99.90;;;;;;4938809;28;20039;-83
2022/11/10 05:22:01;;;;;;;15.30;1.70;;;9.60;99.90;;;;;;4963751;28;20027;-82
2022/11/10 05:24:27;;;;;;;4.28;0.98;;;9.60;99.90;;;;;;4971081;28;20489;-83
2022/11/10 05:26:52;;;;;;;22.90;2.15;;;9.50;99.90;;;;;;4982927;28;20029;-83
2022/11/10 05:29:18;;;;;;;9.80;1.55;;;9.60;99.90;;;;;;4951086;28;20058;-83
2022/11/10 05:31:43;;;;;;;10.30;1.35;;;9.60;99.90;;;;;;4970109;28;20058;-83
2022/11/10 05:34:09;;;;;;;7.13;1.17;;;9.50;99.90;;;;;;4947914;28;20035;-84
2022/11/10 05:36:36;;;;;;;15.73;2.25;;;9.60;99.90;;;;;;4983246;28;20635;-83
2022/11/10 05:39:01;;;;;;;4.57;1.40;;;9.60;99.90;;;;;;4948491;28;20034;-84
2022/11/10 05:41:27;;;;;;;3.95;0.88;;;9.60;99.90;;;;;;4967069;28;20031;-82
2022/11/10 05:43:52;;;;;;;11.32;1.58;;;9.60;99.90;;;;;;4954296;28;20065;-82
2022/11/10 05:46:18;;;;;;;16.42;1.67;;;9.50;99.90;;;;;;4966898;28;20031;-84
2022/11/10 05:48:44;;;;;;;7.40;0.65;;;9.70;99.90;;;;;;4954240;28;20057;-85
2022/11/10 05:51:09;;;;;;;11.40;2.88;;;9.60;99.90;;;;;;4950061;28;20491;-83
2022/11/10 05:53:35;;;;;;;12.70;1.55;;;9.60;99.90;;;;;;4948257;28;20675;-83
2022/11/10 05:56:00;;;;;;;7.22;1.40;;;9.60;99.90;;;;;;4938244;28;20034;-84
2022/11/10 05:58:26;;;;;;;9.30;1.90;;;9.60;99.90;;;;;;4934941;28;20114;-82
2022/11/10 06:00:51;;;;;;;7.68;1.10;;;9.60;99.90;;;;;;4949162;28;20050;-83
2022/11/10 06:03:18;;;;;;;6.28;1.40;;;9.60;99.90;;;;;;4964853;28;20037;-83
2022/11/10 06:05:43;;;;;;;8.00;1.23;;;9.70;99.90;;;;;;4956369;28;20114;-83
2022/11/10 06:08:09;;;;;;;3.05;2.00;;;9.60;99.90;;;;;;4964845;28;20121;-83
2022/11/10 06:10:35;;;;;;;9.32;1.67;;;9.60;99.90;;;;;;4965796;28;20546;-84
2022/11/10 06:13:00;;;;;;;13.38;2.40;;;9.60;99.90;;;;;;4958536;28;20097;-83
2022/11/10 06:15:26;;;;;;;7.07;1.42;;;9.50;99.90;;;;;;4954231;28;20057;-83
2022/11/10 06:17:52;;;;;;;7.80;1.23;;;9.60;99.90;;;;;;4952746;28;20101;-83
2022/11/10 06:20:17;;;;;;;13.27;1.70;;;9.60;99.90;;;;;;4955286;28;20050;-83
2022/11/10 06:22:44;;;;;;;11.70;1.25;;;9.50;99.90;;;;;;4969581;28;20042;-83
2022/11/10 06:25:09;;;;;;;8.60;1.73;;;9.50;99.90;;;;;;4951272;28;20121;-83
2022/11/10 06:27:35;;;;;;;9.55;1.73;;;9.50;99.90;;;;;;4966485;28;20131;-83
2022/11/10 06:30:01;;;;;;;14.27;2.30;;;9.40;99.90;;;;;;4939214;28;20027;-83
2022/11/10 06:32:26;;;;;;;7.72;1.50;;;9.50;99.90;;;;;;4954714;28;20039;-83
2022/11/10 06:34:52;;;;;;;5.20;1.30;;;9.50;99.90;;;;;;4950869;28;20122;-83
2022/11/10 06:37:17;;;;;;;10.93;2.47;;;9.50;99.90;;;;;;4954141;28;20027;-83
2022/11/10 06:39:43;;;;;;;12.27;2.28;;;9.50;99.90;;;;;;4968185;28;20023;-83
2022/11/10 06:42:08;;;;;;;9.50;1.83;;;9.40;99.90;;;;;;4935284;28;20031;-82
2022/11/10 06:44:34;;;;;;;6.10;0.90;;;9.40;99.90;;;;;;4955142;28;20037;-83
2022/11/10 06:46:59;;;;;;;8.57;1.70;;;9.40;99.90;;;;;;4967643;28;20485;-83
2022/11/10 06:49:25;;;;;;;11.65;2.08;;;9.50;99.90;;;;;;4952126;28;20490;-83
2022/11/10 06:51:51;;;;;;;11.07;2.47;;;9.50;99.90;;;;;;4965678;28;20040;-83
2022/11/10 06:54:16;;;;;;;11.73;2.67;;;9.50;99.90;;;;;;4947545;28;20039;-81
2022/11/10 06:56:42;;;;;;;7.57;1.77;;;9.50;99.90;;;;;;4950521;28;20580;-83
2022/11/10 06:59:07;;;;;;;10.45;2.38;;;9.50;99.90;;;;;;4923287;28;20029;-82
2022/11/10 07:01:33;;;;;;;4.00;1.30;;;9.50;99.90;;;;;;4965579;28;20125;-82
2022/11/10 07:03:58;;;;;;;13.15;1.98;;;9.50;99.90;;;;;;4935451;28;20035;-82
2022/11/10 07:06:25;;;;;;;2.40;0.60;;;9.40;99.90;;;;;;4966118;28;20038;-81
2022/11/10 07:08:50;;;;;;;5.97;1.20;;;9.40;99.90;;;;;;4980748;28;20510;-81
2022/11/10 07:11:16;;;;;;;15.35;2.20;;;9.40;99.90;;;;;;4952705;28;20037;-82
2022/11/10 07:13:42;;;;;;;11.18;1.38;;;9.50;99.90;;;;;;4951733;28;20074;-84
2022/11/10 07:16:09;;;;;;;8.93;1.67;;;9.50;99.90;;;;;;4958901;28;20057;-83
2022/11/10 07:18:35;;;;;;;8.75;1.42;;;9.40;99.90;;;;;;4951248;28;20045;-83
2022/11/10 07:21:06;;;;;;;9.85;2.00;;;9.40;99.90;;;;;;4953554;28;20117;-83
2022/11/10 07:23:33;;;;;;;6.80;1.52;;;9.40;99.90;;;;;;4965904;28;20043;-82
2022/11/10 07:25:59;;;;;;;6.03;1.13;;;9.50;99.90;;;;;;4971872;28;20050;-84
2022/11/10 07:28:25;;;;;;;6.03;0.98;;;9.50;99.90;;;;;;4981560;28;20109;-84
2022/11/10 07:30:50;;;;;;;10.30;1.67;;;9.60;99.90;;;;;;4965709;28;20043;-84
2022/11/10 07:33:16;;;;;;;4.70;0.98;;;9.60;99.90;;;;;;4966690;28;20676;-83
2022/11/10 07:35:41;;;;;;;10.48;2.33;;;9.60;99.90;;;;;;4956039;28;20490;-84
2022/11/10 07:38:09;;;;;;;2.58;0.90;;;9.70;99.90;;;;;;4940021;28;20028;-83
2022/11/10 07:40:34;;;;;;;8.82;1.45;;;9.70;99.90;;;;;;4952414;28;20081;-83
2022/11/10 07:43:00;;;;;;;13.18;1.73;;;9.70;99.90;;;;;;4947979;28;20038;-84
2022/11/10 07:45:26;;;;;;;13.93;1.73;;;9.70;99.90;;;;;;4948514;28;20027;-83
2022/11/10 07:47:56;;;;;;;12.18;1.70;;;9.80;99.90;;;;;;4935381;28;20425;-83
2022/11/10 07:50:22;;;;;;;12.05;1.70;;;9.80;99.90;;;;;;4951730;28;20031;-84
2022/11/10 07:52:48;;;;;;;14.55;2.08;;;9.80;99.90;;;;;;4934317;28;20520;-84
2022/11/10 07:55:13;;;;;;;7.78;0.95;;;9.90;99.90;;;;;;4947361;28;20063;-83
2022/11/10 07:57:39;;;;;;;8.85;1.52;;;9.90;99.90;;;;;;4950313;28;20038;-83
2022/11/10 08:00:05;;;;;;;10.23;1.63;;;10.00;99.90;;;;;;4939039;28;20039;-83
2022/11/10 08:02:30;;;;;;;9.95;1.48;;;10.00;99.90;;;;;;4952836;28;20042;-82
2022/11/10 08:04:56;;;;;;;12.02;1.90;;;10.10;99.90;;;;;;4930838;28;20035;-82
2022/11/10 08:07:21;;;;;;;7.95;0.90;;;10.10;99.90;;;;;;4980827;28;20394;-82
2022/11/10 08:09:47;;;;;;;4.65;1.23;;;10.20;99.90;;;;;;4948268;28;20042;-83
2022/11/10 08:12:12;;;;;;;13.02;2.05;;;10.30;99.90;;;;;;4944441;28;20027;-83
2022/11/10 08:14:46;;;;;;;11.98;2.30;;;10.30;99.90;;;;;;4966315;28;20023;-82
2022/11/10 08:17:12;;;;;;;9.32;1.77;;;10.40;99.90;;;;;;4922817;28;20117;-82
2022/11/10 08:19:37;;;;;;;6.25;2.08;;;10.50;99.90;;;;;;4948330;28;20041;-83
2022/11/10 08:22:03;;;;;;;9.63;1.63;;;10.50;99.90;;;;;;4933848;28;20031;-82
2022/11/10 08:24:28;;;;;;;6.88;1.33;;;10.60;99.90;;;;;;4958361;28;20066;-82
2022/11/10 08:26:55;;;;;;;11.95;1.63;;;10.80;99.90;;;;;;4947800;28;20050;-82
2022/11/10 08:29:20;;;;;;;3.80;1.00;;;10.90;99.90;;;;;;4965496;28;20122;-82
2022/11/10 08:31:46;;;;;;;9.57;2.10;;;11.00;99.90;;;;;;4938205;28;20449;-82
2022/11/10 08:34:12;;;;;;;10.93;2.50;;;11.00;99.90;;;;;;4947245;28;20035;-82
2022/11/10 08:36:37;;;;;;;21.10;3.30;;;10.90;99.90;;;;;;4933476;28;20037;-82
2022/11/10 08:39:03;;;;;;;15.55;3.28;;;11.10;99.90;;;;;;4950052;28;20022;-82
2022/11/10 08:41:28;;;;;;;8.85;2.70;;;11.20;99.90;;;;;;4950881;28;20109;-83
2022/11/10 08:43:54;;;;;;;7.72;2.42;;;11.30;99.90;;;;;;4968876;28;20039;-82
2022/11/10 08:46:20;;;;;;;12.18;1.77;;;11.40;99.90;;;;;;4947972;28;20102;-83
2022/11/10 08:48:45;;;;;;;8.32;1.42;;;11.50;99.90;;;;;;4938044;28;20065;-83
2022/11/10 08:51:11;;;;;;;3.78;1.08;;;11.50;99.90;;;;;;4928045;28;20039;-82
2022/11/10 08:53:37;;;;;;;9.85;2.38;;;11.50;99.90;;;;;;4965733;28;20019;-82
2022/11/10 08:56:02;;;;;;;7.32;1.75;;;11.70;99.90;;;;;;4945203;28;20042;-82
2022/11/10 08:58:28;;;;;;;4.20;1.27;;;11.70;99.90;;;;;;4950891;28;20035;-83
2022/11/10 09:00:53;;;;;;;15.93;2.17;;;11.70;99.90;;;;;;4928371;28;21121;-82
2022/11/10 09:03:20;;;;;;;9.07;2.35;;;11.80;99.90;;;;;;4951569;28;20112;-82
2022/11/10 09:05:47;;;;;;;8.75;1.45;;;11.90;99.90;;;;;;4938380;28;20059;-82
2022/11/10 09:08:12;;;;;;;13.00;2.80;;;12.10;99.90;;;;;;4968482;28;20512;-82
2022/11/10 09:10:40;;;;;;;11.35;2.50;;;12.20;99.90;;;;;;4966395;28;20035;-83
2022/11/10 09:13:05;;;;;;;14.27;2.55;;;12.20;99.90;;;;;;4942686;28;20026;-83
2022/11/10 09:15:31;;;;;;;4.35;1.20;;;12.30;99.90;;;;;;4923124;28;20034;-81
2022/11/10 09:17:58;;;;;;;7.15;1.38;;;12.40;99.90;;;;;;4936574;28;20118;-82
2022/11/10 09:20:24;;;;;;;15.25;1.60;;;12.40;99.90;;;;;;4966339;28;20700;-83
2022/11/10 09:22:50;;;;;;;11.35;1.50;;;12.50;99.90;;;;;;4949757;28;20066;-83
2022/11/10 09:25:15;;;;;;;10.90;1.80;;;12.60;99.90;;;;;;4952540;28;20490;-82
2022/11/10 09:27:41;;;;;;;10.48;2.53;;;12.70;99.90;;;;;;4947388;28;20031;-82
2022/11/10 09:30:07;;;;;;;4.57;1.55;;;12.60;99.90;;;;;;4932475;28;20031;-81
2022/11/10 09:32:33;;;;;;;10.30;2.78;;;12.80;99.90;;;;;;4953647;28;20039;-83
2022/11/10 09:34:58;;;;;;;10.90;2.05;;;13.00;99.90;;;;;;4939423;28;20065;-83
2022/11/10 09:37:24;;;;;;;11.00;1.90;;;13.00;99.90;;;;;;4978906;28;20053;-83
2022/11/10 09:39:49;;;;;;;11.27;2.63;;;13.10;99.90;;;;;;4951128;28;20402;-83
2022/11/10 09:42:24;;;;;;;13.45;1.90;;;13.20;99.90;;;;;;4973934;28;20496;-83
2022/11/10 09:44:58;;;;;;;10.03;2.20;;;13.30;99.90;;;;;;4957819;28;20031;-83
2022/11/10 09:47:33;;;;;;;7.53;2.22;;;13.40;99.90;;;;;;4953714;28;20039;-83
2022/11/10 09:50:00;;;;;;;8.45;1.83;;;13.60;99.90;;;;;;4947367;28;20027;-83
2022/11/10 09:52:26;;;;;;;6.35;1.52;;;13.60;99.90;;;;;;4978893;28;20035;-83
2022/11/10 09:55:18;;;;;;;13.48;2.35;;;13.60;99.90;;;;;;4971306;28;20046;-82
2022/11/10 09:57:44;;;;;;;9.25;1.88;;;13.80;99.90;;;;;;4938591;28;20051;-77
2022/11/10 10:00:14;;;;;;;12.18;1.85;;;14.00;99.90;;;;;;4954104;28;20059;-78
2022/11/10 10:02:43;;;;;;;12.07;3.22;;;14.10;99.90;;;;;;4934449;28;20050;-77
2022/11/10 10:05:21;;;;;;;10.52;1.90;;;14.00;99.90;;;;;;4931698;28;20032;-78
2022/11/10 10:07:49;;;;;;;4.30;1.17;;;14.10;99.90;;;;;;4966235;28;20038;-79
2022/11/10 10:10:45;;;;;;;5.80;1.40;;;14.20;99.90;;;;;;4953197;28;20031;-78
2022/11/10 10:13:35;;;;;;;9.40;1.95;;;14.40;99.90;;;;;;4983394;28;20045;-78
2022/11/10 10:16:07;;;;;;;2.10;0.77;;;14.40;99.90;;;;;;4959230;28;20485;-78
2022/11/10 10:18:57;;;;;;;9.38;1.55;;;14.60;99.90;;;;;;4956819;28;20430;-78
2022/11/10 10:21:46;;;;;;;15.73;2.70;;;14.60;99.90;;;;;;4945642;28;20023;-78
2022/11/10 10:24:13;;;;;;;4.47;1.73;;;14.70;99.90;;;;;;4957478;28;20031;-80
2022/11/10 10:26:45;;;;;;;6.43;1.67;;;14.70;99.90;;;;;;4953739;28;20057;-78
2022/11/10 10:29:24;;;;;;;10.02;1.98;;;14.90;99.90;;;;;;4938377;28;20502;-78
2022/11/10 10:31:50;;;;;;;10.85;2.25;;;14.90;99.90;;;;;;4922492;28;20047;-78
2022/11/10 10:34:23;;;;;;;12.23;1.83;;;15.10;99.90;;;;;;4973968;28;20053;-79
2022/11/10 10:36:48;;;;;;;9.48;2.05;;;15.10;99.90;;;;;;4942575;28;20473;-78
2022/11/10 10:39:26;;;;;;;14.20;1.23;;;15.20;99.90;;;;;;4954293;28;20023;-79
2022/11/10 10:41:52;;;;;;;7.00;1.15;;;15.30;99.90;;;;;;4954082;28;20046;-79
2022/11/10 10:44:18;;;;;;;14.15;2.55;;;15.50;99.90;;;;;;4949255;28;20039;-79
2022/11/10 10:47:01;;;;;;;12.73;2.33;;;15.60;99.90;;;;;;4955262;28;20031;-78
2022/11/10 10:49:28;;;;;;;15.80;2.85;;;15.50;99.90;;;;;;4956694;28;20162;-79
2022/11/10 10:52:12;;;;;;;6.90;1.17;;;15.60;99.90;;;;;;4955856;28;20453;-80
2022/11/10 10:54:38;;;;;;;15.82;1.75;;;15.80;99.90;;;;;;4967224;28;20043;-81
2022/11/10 10:57:03;;;;;;;8.82;2.22;;;15.80;99.90;;;;;;4950187;28;20085;-80
2022/11/10 10:59:29;;;;;;;6.40;1.17;;;15.80;99.90;;;;;;4947847;28;20067;-79
2022/11/10 11:01:54;;;;;;;15.23;2.65;;;15.90;99.90;;;;;;4952066;28;20058;-80
2022/11/10 11:04:34;;;;;;;11.52;2.33;;;15.90;99.90;;;;;;4942912;28;20045;-79
2022/11/10 11:07:02;;;;;;;13.93;1.73;;;15.90;99.90;;;;;;4980104;28;20516;-79
2022/11/10 11:09:47;;;;;;;13.55;1.52;;;16.10;99.90;;;;;;4973582;28;20038;-80
2022/11/10 11:12:25;;;;;;;16.42;2.15;;;16.30;99.90;;;;;;4962600;28;20058;-79
2022/11/10 11:14:52;;;;;;;9.13;1.40;;;16.20;99.90;;;;;;4933911;28;20057;-81
2022/11/10 11:17:21;;;;;;;8.38;0.95;;;16.10;99.90;;;;;;4964789;28;20112;-79
2022/11/10 11:19:47;;;;;;;14.50;3.10;;;16.20;99.90;;;;;;4951510;28;20031;-80
2022/11/10 11:22:36;;;;;;;5.68;1.25;;;16.30;99.90;;;;;;4949074;28;20042;-79
2022/11/10 11:25:11;;;;;;;9.18;2.42;;;16.30;99.90;;;;;;4978226;28;20026;-80
2022/11/10 11:27:48;;;;;;;10.27;1.50;;;16.40;99.90;;;;;;4959270;28;20035;-82
2022/11/10 11:30:20;;;;;;;12.98;1.63;;;16.40;99.90;;;;;;4935212;28;20041;-80
2022/11/10 11:33:24;;;;;;;9.57;1.65;;;16.50;99.90;;;;;;4941550;28;20035;-81
2022/11/10 11:36:02;;;;;;;11.00;2.00;;;16.80;99.90;;;;;;4885156;28;20063;-81
2022/11/10 11:38:32;;;;;;;9.93;1.65;;;16.70;99.90;;;;;;4930729;28;20055;-79
2022/11/10 11:41:11;;;;;;;11.13;2.03;;;16.60;99.90;;;;;;4972500;28;20034;-79
2022/11/10 11:43:52;;;;;;;19.25;2.40;;;16.70;99.90;;;;;;4952065;28;20737;-80
2022/11/10 11:46:43;;;;;;;8.63;1.35;;;16.70;99.90;;;;;;4965213;28;20039;-80
2022/11/10 11:49:46;;;;;;;6.97;1.60;;;16.80;99.90;;;;;;4921312;28;20037;-79
2022/11/10 11:52:17;;;;;;;10.77;1.75;;;16.80;99.90;;;;;;4962502;28;20714;-79
2022/11/10 11:54:57;;;;;;;12.10;1.50;;;16.80;99.90;;;;;;4959677;28;20050;-79
2022/11/10 11:57:49;;;;;;;8.50;1.20;;;16.80;99.90;;;;;;4927656;28;20066;-79
2022/11/10 12:00:16;;;;;;;7.18;1.95;;;16.70;99.90;;;;;;4963103;28;20031;-82
2022/11/10 12:02:47;;;;;;;8.63;1.60;;;16.50;99.90;;;;;;4974790;28;20031;-80
2022/11/10 12:05:36;;;;;;;10.98;2.03;;;16.50;99.90;;;;;;4944818;28;20431;-80
2022/11/10 12:08:27;;;;;;;9.05;1.60;;;16.50;99.90;;;;;;4946054;28;20077;-80
2022/11/10 12:11:24;;;;;;;9.00;1.27;;;16.80;99.90;;;;;;4951855;28;20032;-80
2022/11/10 12:14:19;;;;;;;11.23;1.48;;;16.70;99.90;;;;;;4950272;28;20027;-79
2022/11/10 12:16:56;;;;;;;6.60;1.15;;;16.80;99.90;;;;;;4267174;28;9999950;-80
2022/11/10 12:19:43;;;;;;;7.43;0.90;;;16.70;99.90;;;;;;4953661;28;20042;-80
2022/11/10 12:22:43;;;;;;;2.88;0.88;;;17.10;99.90;;;;;;4946321;28;20031;-81
2022/11/10 12:25:41;;;;;;;8.25;1.20;;;17.10;99.90;;;;;;4946002;28;20638;-80
2022/11/10 12:28:32;;;;;;;4.63;1.60;;;17.00;99.90;;;;;;4969662;28;20490;-80
2022/11/10 12:30:59;;;;;;;12.90;1.15;;;16.90;99.90;;;;;;4969691;28;20446;-80
2022/11/10 12:33:35;;;;;;;6.28;1.13;;;17.20;99.90;;;;;;4950834;28;20517;-80
2022/11/10 12:36:02;;;;;;;5.28;1.00;;;17.50;99.90;;;;;;4939716;28;20060;-80
2022/11/10 12:38:51;;;;;;;3.33;0.77;;;17.50;99.90;;;;;;4952670;28;20046;-79
2022/11/10 12:41:18;;;;;;;4.68;1.52;;;17.00;99.90;;;;;;4950333;28;20034;-80
2022/11/10 12:44:13;;;;;;;6.50;1.02;;;17.00;99.90;;;;;;4964542;28;20565;-80
2022/11/10 12:46:39;;;;;;;6.03;1.08;;;17.30;99.90;;;;;;4965571;28;20587;-81
2022/11/10 12:49:40;;;;;;;12.50;1.63;;;17.40;99.90;;;;;;4933111;28;20556;-80
2022/11/10 12:52:23;;;;;;;6.20;1.60;;;17.50;99.90;;;;;;4933507;28;20034;-81
2022/11/10 12:54:48;;;;;;;6.22;0.95;;;17.40;99.90;;;;;;4965175;28;20118;-79
2022/11/10 12:57:21;;;;;;;1.75;0.50;;;17.40;99.90;;;;;;4946514;28;20415;-80
2022/11/10 12:59:57;;;;;;;7.78;1.20;;;17.40;99.90;;;;;;4953499;28;20375;-80
2022/11/10 13:02:41;;;;;;;6.55;0.80;;;17.50;99.90;;;;;;4933794;28;20027;-80
2022/11/10 13:05:13;;;;;;;5.75;0.75;;;17.50;99.90;;;;;;4955952;28;20030;-80
2022/11/10 13:07:42;;;;;;;6.15;0.90;;;17.70;99.90;;;;;;4956163;28;20045;-80
2022/11/10 13:10:17;;;;;;;8.68;1.15;;;17.90;99.90;;;;;;4936925;28;20031;-80